createdAt,value
2018-08-04T00:01:42.368Z,33.60
2018-08-04T00:04:09.833Z,33.60
2018-08-04T00:06:37.640Z,33.60
2018-08-04T00:09:07.977Z,33.60
2018-08-04T00:11:35.780Z,33.60
2018-08-04T00:14:03.244Z,33.60
2018-08-04T00:16:30.724Z,33.60
2018-08-04T00:18:58.512Z,33.50
2018-08-04T00:21:25.988Z,33.40
2018-08-04T00:23:53.636Z,33.30
2018-08-04T00:26:21.145Z,33.30
2018-08-04T00:28:48.620Z,33.20
2018-08-04T00:31:16.516Z,33.20
2018-08-04T00:33:43.979Z,33.20
2018-08-04T00:36:11.458Z,33.20
2018-08-04T00:38:38.916Z,33.20
2018-08-04T00:41:06.397Z,33.20
2018-08-04T00:43:34.061Z,33.10
2018-08-04T00:46:01.564Z,33.20
2018-08-04T00:48:29.361Z,33.20
2018-08-04T00:50:57.164Z,33.10
2018-08-04T00:53:24.633Z,33.20
2018-08-04T00:55:52.105Z,33.10
2018-08-04T00:58:19.556Z,33.10
2018-08-04T01:00:47.032Z,33.10
2018-08-04T01:05:41.752Z,33.10
2018-08-04T01:08:09.237Z,33.00
2018-08-04T01:10:37.029Z,33.10
2018-08-04T01:13:04.844Z,33.10
2018-08-04T01:15:32.301Z,33.00
2018-08-04T01:17:59.969Z,33.00
2018-08-04T01:20:27.776Z,33.00
2018-08-04T01:22:55.260Z,33.00
2018-08-04T01:25:22.711Z,32.90
2018-08-04T01:27:50.200Z,32.90
2018-08-04T01:30:18.026Z,32.90
2018-08-04T01:32:45.831Z,32.90
2018-08-04T01:35:13.284Z,32.90
2018-08-04T01:37:40.836Z,32.80
2018-08-04T01:40:08.733Z,32.80
2018-08-04T01:42:36.191Z,32.80
2018-08-04T01:45:03.660Z,32.80
2018-08-04T01:47:31.136Z,32.80
2018-08-04T01:49:58.605Z,32.80
2018-08-04T01:52:26.076Z,32.80
2018-08-04T01:54:53.531Z,32.70
2018-08-04T01:57:21.333Z,32.70
2018-08-04T01:59:48.792Z,32.70
2018-08-04T02:02:16.692Z,32.70
2018-08-04T02:04:44.151Z,32.70
2018-08-04T02:07:11.666Z,32.70
2018-08-04T02:09:39.288Z,32.70
2018-08-04T02:12:06.760Z,32.60
2018-08-04T02:14:34.217Z,32.60
2018-08-04T02:17:01.765Z,32.60
2018-08-04T02:19:29.298Z,32.60
2018-08-04T02:21:56.972Z,32.60
2018-08-04T02:24:24.765Z,32.60
2018-08-04T02:26:52.577Z,32.60
2018-08-04T02:29:20.373Z,32.60
2018-08-04T02:31:48.173Z,32.50
2018-08-04T02:36:43.428Z,32.50
2018-08-04T02:39:11.568Z,32.40
2018-08-04T02:41:39.053Z,32.50
2018-08-04T02:44:06.600Z,32.50
2018-08-04T02:46:34.269Z,32.40
2018-08-04T02:49:01.746Z,32.40
2018-08-04T02:51:29.749Z,32.40
2018-08-04T02:53:57.225Z,32.40
2018-08-04T02:56:24.688Z,32.40
2018-08-04T02:58:52.173Z,32.40
2018-08-04T03:01:19.633Z,32.40
2018-08-04T03:03:47.105Z,32.40
2018-08-04T03:06:15.006Z,32.40
2018-08-04T03:08:42.477Z,32.40
2018-08-04T03:11:10.475Z,32.40
2018-08-04T03:13:37.945Z,32.30
2018-08-04T03:16:05.404Z,32.30
2018-08-04T03:18:32.871Z,32.30
2018-08-04T03:21:00.337Z,32.30
2018-08-04T03:23:27.818Z,32.30
2018-08-04T03:25:55.272Z,32.30
2018-08-04T03:28:22.766Z,32.20
2018-08-04T03:30:50.257Z,32.20
2018-08-04T03:33:17.832Z,32.30
2018-08-04T03:35:45.541Z,32.20
2018-08-04T03:40:40.365Z,32.20
2018-08-04T03:43:08.071Z,32.20
2018-08-04T03:45:35.883Z,32.20
2018-08-04T03:48:03.716Z,32.20
2018-08-04T03:50:31.660Z,32.10
2018-08-04T03:52:59.516Z,32.10
2018-08-04T03:55:27.312Z,32.10
2018-08-04T03:57:55.145Z,32.10
2018-08-04T04:00:22.979Z,32.10
2018-08-04T04:02:50.458Z,32.10
2018-08-04T04:05:17.921Z,32.00
2018-08-04T04:07:45.401Z,32.00
2018-08-04T04:10:12.860Z,32.00
2018-08-04T04:12:40.668Z,31.90
2018-08-04T04:15:08.483Z,31.90
2018-08-04T04:17:44.565Z,31.90
2018-08-04T04:20:12.376Z,31.90
2018-08-04T04:22:39.832Z,31.90
2018-08-04T04:25:07.310Z,31.90
2018-08-04T04:27:35.369Z,31.90
2018-08-04T04:30:02.848Z,31.90
2018-08-04T04:32:30.641Z,31.90
2018-08-04T04:34:58.109Z,31.90
2018-08-04T04:37:25.584Z,31.90
2018-08-04T04:39:53.108Z,31.90
2018-08-04T04:42:21.136Z,31.90
2018-08-04T04:44:48.954Z,31.90
2018-08-04T04:47:16.940Z,31.90
2018-08-04T04:49:44.416Z,31.90
2018-08-04T04:52:11.893Z,31.90
2018-08-04T04:54:39.388Z,31.80
2018-08-04T04:57:06.856Z,31.80
2018-08-04T04:59:34.333Z,31.80
2018-08-04T05:04:29.248Z,31.90
2018-08-04T05:06:56.713Z,31.90
2018-08-04T05:14:19.013Z,31.90
2018-08-04T05:16:46.680Z,32.00
2018-08-04T05:19:14.488Z,32.00
2018-08-04T05:21:42.360Z,32.00
2018-08-04T05:24:10.376Z,32.00
2018-08-04T05:26:40.822Z,32.00
2018-08-04T05:29:08.775Z,32.00
2018-08-04T05:31:36.240Z,32.10
2018-08-04T05:34:03.725Z,32.10
2018-08-04T05:36:31.184Z,32.10
2018-08-04T05:38:58.659Z,32.20
2018-08-04T05:41:26.465Z,32.20
2018-08-04T05:43:53.948Z,32.30
2018-08-04T05:46:24.957Z,32.30
2018-08-04T05:48:54.065Z,32.30
2018-08-04T05:51:21.875Z,32.40
2018-08-04T05:53:49.348Z,32.50
2018-08-04T05:56:16.885Z,32.50
2018-08-04T05:58:44.868Z,32.60
2018-08-04T06:01:12.580Z,32.60
2018-08-04T06:03:40.924Z,32.70
2018-08-04T06:06:08.628Z,32.80
2018-08-04T06:08:36.096Z,32.80
2018-08-04T06:11:03.574Z,32.90
2018-08-04T06:13:31.053Z,32.90
2018-08-04T06:15:58.852Z,33.00
2018-08-04T06:18:26.657Z,33.00
2018-08-04T06:20:54.144Z,33.10
2018-08-04T06:23:21.608Z,33.20
2018-08-04T06:25:49.138Z,33.20
2018-08-04T06:28:16.813Z,33.30
2018-08-04T06:30:44.773Z,33.40
2018-08-04T06:33:12.232Z,33.40
2018-08-04T06:35:39.712Z,33.50
2018-08-04T06:38:07.500Z,33.60
2018-08-04T06:40:35.012Z,33.70
2018-08-04T06:43:02.476Z,33.70
2018-08-04T06:45:30.289Z,33.80
2018-08-04T06:47:57.776Z,33.80
2018-08-04T06:50:25.276Z,33.90
2018-08-04T06:55:20.260Z,34.10
2018-08-04T06:57:47.736Z,34.20
2018-08-04T07:00:15.560Z,34.30
2018-08-04T07:02:43.033Z,34.40
2018-08-04T07:05:10.708Z,34.40
2018-08-04T07:07:38.519Z,34.60
2018-08-04T07:10:06.016Z,34.60
2018-08-04T07:12:33.480Z,34.70
2018-08-04T07:15:00.961Z,34.80
2018-08-04T07:17:28.428Z,34.90
2018-08-04T07:19:55.888Z,35.00
2018-08-04T07:22:23.362Z,35.10
2018-08-04T07:24:50.823Z,35.20
2018-08-04T07:27:18.293Z,35.30
2018-08-04T07:29:45.758Z,35.30
2018-08-04T07:32:13.227Z,35.40
2018-08-04T07:39:22.272Z,34.60
2018-08-04T07:41:50.164Z,32.30
2018-08-04T07:44:17.624Z,32.10
2018-08-04T07:46:45.077Z,31.70
2018-08-04T07:49:13.427Z,31.70
2018-08-04T07:51:40.933Z,31.70
2018-08-04T07:54:08.497Z,31.90
2018-08-04T07:56:36.184Z,32.00
2018-08-04T07:59:03.632Z,32.10
2018-08-04T08:01:31.101Z,32.20
2018-08-04T08:03:58.545Z,32.30
2018-08-04T08:06:26.004Z,32.40
2018-08-04T08:08:53.531Z,32.50
2018-08-04T08:11:20.990Z,32.60
2018-08-04T08:13:48.435Z,32.70
2018-08-04T08:16:15.889Z,32.70
2018-08-04T08:18:43.329Z,32.80
2018-08-04T08:21:10.787Z,32.90
2018-08-04T08:23:38.224Z,33.00
2018-08-04T08:26:07.950Z,33.10
2018-08-04T08:28:35.404Z,33.10
2018-08-04T08:31:02.944Z,33.20
2018-08-04T08:35:57.659Z,33.20
2018-08-04T08:38:25.128Z,33.30
2018-08-04T08:40:53.332Z,33.40
2018-08-04T08:43:20.791Z,33.40
2018-08-04T08:45:48.236Z,33.40
2018-08-04T08:48:15.675Z,33.50
2018-08-04T08:50:43.164Z,33.50
2018-08-04T13:03:55.527Z,29.00
2018-08-04T13:06:22.940Z,28.20
2018-08-04T13:08:50.440Z,28.00
2018-08-04T13:11:17.832Z,28.00
2018-08-04T13:13:45.200Z,28.00
2018-08-04T13:16:12.932Z,28.10
2018-08-04T13:18:40.300Z,28.10
2018-08-04T13:21:07.752Z,28.50
2018-08-04T13:23:35.112Z,28.50
2018-08-04T13:26:02.496Z,28.40
2018-08-04T13:28:30.248Z,28.40
2018-08-04T13:30:57.604Z,28.30
2018-08-04T13:33:24.972Z,28.30
2018-08-04T13:35:52.413Z,28.30
2018-08-04T13:38:19.777Z,28.30
2018-08-04T13:40:47.176Z,28.20
2018-08-04T13:43:14.560Z,28.20
2018-08-04T13:47:25.357Z,28.30
2018-08-04T13:49:52.821Z,28.10
2018-08-04T13:52:20.277Z,27.80
2018-08-04T13:54:47.740Z,27.50
2018-08-04T13:57:15.179Z,27.20
2018-08-04T13:59:42.706Z,27.00
2018-08-04T14:02:10.048Z,26.80
2018-08-04T14:04:37.426Z,26.70
2018-08-04T14:07:04.885Z,26.60
2018-08-04T14:09:32.279Z,26.50
2018-08-04T14:11:59.688Z,26.40
2018-08-04T14:14:27.081Z,26.30
2018-08-04T14:16:54.661Z,26.30
2018-08-04T14:19:22.132Z,26.30
2018-08-04T14:21:49.505Z,26.20
2018-08-04T14:24:16.908Z,26.20
2018-08-04T14:26:44.272Z,26.10
2018-08-04T14:29:11.712Z,26.10
2018-08-04T14:31:39.092Z,26.10
2018-08-04T14:34:06.623Z,26.10
2018-08-04T14:36:34.433Z,26.10
2018-08-04T14:39:01.861Z,26.10
2018-08-04T14:41:29.331Z,26.00
2018-08-04T14:43:56.765Z,26.00
2018-08-04T14:46:25.178Z,26.00
2018-08-04T14:48:52.600Z,26.00
2018-08-04T14:51:20.081Z,26.00
2018-08-04T14:53:47.440Z,26.00
2018-08-04T14:56:14.891Z,26.00
2018-08-04T14:58:42.261Z,26.00
2018-08-04T15:01:09.698Z,26.10
2018-08-04T15:03:37.158Z,26.10
2018-08-04T15:08:32.428Z,26.10
2018-08-04T15:10:59.905Z,26.10
2018-08-04T15:13:27.273Z,26.10
2018-08-04T15:15:54.648Z,26.10
2018-08-04T15:18:22.008Z,26.10
2018-08-04T15:20:49.465Z,26.10
2018-08-04T15:23:16.888Z,26.10
2018-08-04T15:25:44.257Z,26.10
2018-08-04T15:28:11.658Z,26.10
2018-08-04T15:30:39.356Z,26.10
2018-08-04T15:33:06.796Z,26.10
2018-08-04T15:35:34.128Z,26.10
2018-08-04T15:38:01.545Z,26.10
2018-08-04T15:40:28.917Z,26.10
2018-08-04T15:42:56.288Z,26.10
2018-08-04T15:45:23.657Z,26.10
2018-08-04T15:47:51.053Z,26.10
2018-08-04T15:50:18.429Z,26.10
2018-08-04T15:52:45.804Z,26.10
2018-08-04T15:55:13.165Z,26.10
2018-08-04T15:57:40.596Z,26.10
2018-08-04T16:00:08.680Z,26.10
2018-08-04T16:02:36.087Z,26.10
2018-08-04T16:05:03.500Z,26.10
2018-08-04T16:07:30.872Z,26.10
2018-08-04T16:09:58.236Z,26.10
2018-08-04T16:12:25.604Z,26.10
2018-08-04T16:14:52.972Z,26.10
2018-08-04T16:17:20.349Z,26.10
2018-08-04T16:19:47.721Z,26.10
2018-08-04T16:22:15.110Z,26.10
2018-08-04T16:24:42.513Z,26.10
2018-08-04T16:27:09.944Z,26.10
2018-08-04T16:32:04.674Z,26.10
2018-08-04T16:34:32.024Z,26.10
2018-08-04T16:36:59.449Z,26.10
2018-08-04T16:39:26.840Z,26.10
2018-08-04T16:41:54.301Z,26.10
2018-08-04T16:44:21.681Z,26.10
2018-08-04T16:46:49.050Z,26.10
2018-08-04T16:49:16.621Z,26.10
2018-08-04T16:51:44.083Z,26.10
2018-08-04T16:54:11.489Z,26.00
2018-08-04T16:56:39.432Z,26.00
2018-08-04T16:59:06.828Z,26.00
2018-08-04T17:01:34.193Z,26.10
2018-08-04T17:04:01.859Z,26.00
2018-08-04T17:06:29.259Z,26.00
2018-08-04T17:11:23.896Z,26.10
2018-08-04T17:13:51.545Z,26.00
2018-08-04T17:16:18.953Z,26.00
2018-08-04T17:18:46.320Z,26.00
2018-08-04T17:21:13.680Z,26.00
2018-08-04T17:23:41.617Z,26.00
2018-08-04T17:26:08.982Z,26.10
2018-08-04T17:28:36.436Z,26.10
2018-08-04T17:31:03.792Z,26.10
2018-08-04T17:33:31.294Z,26.10
2018-08-04T17:35:58.684Z,26.10
2018-08-04T17:38:26.140Z,26.10
2018-08-04T17:40:53.589Z,26.10
2018-08-04T17:43:20.959Z,26.10
2018-08-04T17:45:48.320Z,26.10
2018-08-04T17:48:15.692Z,26.10
2018-08-04T17:50:43.151Z,26.10
2018-08-04T17:53:10.636Z,26.10
2018-08-04T17:58:05.297Z,26.10
2018-08-04T18:00:32.659Z,26.10
2018-08-04T18:03:00.040Z,26.20
2018-08-04T18:05:27.404Z,26.10
2018-08-04T18:10:21.941Z,26.20
2018-08-04T18:12:49.315Z,26.20
2018-08-04T18:15:16.680Z,26.10
2018-08-04T18:17:44.067Z,26.10
2018-08-04T18:20:11.436Z,26.20
2018-08-04T18:25:05.941Z,26.10
2018-08-04T18:27:33.306Z,26.10
2018-08-04T18:30:00.700Z,26.10
2018-08-04T18:32:28.045Z,26.10
2018-08-04T18:34:55.517Z,26.10
2018-08-04T18:37:22.884Z,26.10
2018-08-04T18:39:50.532Z,26.10
2018-08-04T18:42:18.959Z,26.10
2018-08-04T18:44:46.395Z,26.10
2018-08-04T18:47:13.726Z,26.10
2018-08-04T18:54:17.497Z,26.20
2018-08-04T18:56:45.133Z,26.20
2018-08-04T18:59:12.513Z,26.00
2018-08-04T19:01:39.921Z,26.00
2018-08-04T19:04:07.788Z,26.10
2018-08-04T19:06:35.165Z,26.10
2018-08-04T19:09:02.666Z,26.10
2018-08-04T19:11:30.013Z,26.20
2018-08-04T19:13:57.430Z,26.20
2018-08-04T19:16:24.873Z,26.20
2018-08-04T19:18:52.333Z,26.20
2018-08-04T19:21:19.776Z,26.20
2018-08-04T19:23:47.148Z,26.20
2018-08-04T19:26:14.580Z,26.20
2018-08-04T19:28:42.820Z,26.10
2018-08-04T19:31:10.133Z,26.10
2018-08-04T19:33:37.512Z,26.10
2018-08-04T19:36:04.914Z,26.10
2018-08-04T19:38:32.301Z,26.10
2018-08-04T19:41:00.583Z,26.10
2018-08-04T19:43:28.062Z,26.10
2018-08-04T19:45:55.654Z,26.10
2018-08-04T19:48:23.104Z,26.10
2018-08-04T19:53:17.613Z,26.10
2018-08-04T19:55:45.038Z,26.10
2018-08-04T19:58:12.335Z,26.10
2018-08-04T20:00:39.708Z,26.10
2018-08-04T20:03:07.232Z,26.10
2018-08-04T20:05:34.604Z,26.10
2018-08-04T20:08:01.968Z,26.10
2018-08-04T20:10:29.344Z,26.10
2018-08-04T20:12:56.792Z,26.10
2018-08-04T20:15:24.181Z,26.10
2018-08-04T20:17:51.549Z,26.10
2018-08-04T20:20:18.920Z,26.10
2018-08-04T20:22:46.288Z,26.10
2018-08-04T20:25:14.340Z,26.10
2018-08-04T20:27:42.141Z,26.10
2018-08-04T20:30:09.511Z,26.10
2018-08-04T20:32:36.897Z,26.10
2018-08-04T20:35:04.637Z,26.10
2018-08-04T20:37:31.964Z,26.10
2018-08-04T20:39:59.350Z,26.10
2018-08-04T20:42:26.724Z,26.10
2018-08-04T20:44:54.109Z,26.10
2018-08-04T20:47:21.488Z,26.10
2018-08-04T20:49:48.968Z,26.10
2018-08-04T20:52:16.341Z,26.10
2018-08-04T20:54:43.897Z,26.10
2018-08-04T20:57:11.260Z,26.10
2018-08-04T20:59:38.635Z,26.10
2018-08-04T21:02:06.309Z,26.10
2018-08-04T21:07:02.556Z,26.10
2018-08-04T21:09:29.936Z,26.10
2018-08-04T21:11:57.464Z,26.10
2018-08-04T21:16:53.917Z,26.10
2018-08-04T21:19:22.310Z,26.10
2018-08-04T21:21:49.708Z,26.10
2018-08-04T21:24:18.132Z,26.10
2018-08-04T21:26:46.167Z,26.10
2018-08-04T21:31:40.861Z,26.10
2018-08-04T21:34:08.256Z,26.10
2018-08-04T21:36:35.638Z,26.10
2018-08-04T21:39:04.040Z,26.10
2018-08-04T21:41:31.435Z,26.10
2018-08-04T21:43:58.812Z,26.10
2018-08-04T21:46:26.178Z,26.10
2018-08-04T21:48:53.548Z,26.10
2018-08-04T21:51:20.924Z,26.10
2018-08-04T21:53:48.292Z,26.10
2018-08-04T21:56:15.665Z,26.10
2018-08-04T21:58:43.037Z,26.10
2018-08-04T22:01:14.347Z,26.10
2018-08-04T22:03:43.732Z,26.10
2018-08-04T22:06:11.313Z,26.10
2018-08-04T22:08:44.256Z,26.10
2018-08-04T22:11:11.622Z,26.00
2018-08-04T22:13:38.986Z,26.10
2018-08-04T22:16:06.360Z,26.10
2018-08-04T22:18:33.728Z,26.10
2018-08-04T22:21:01.112Z,26.10
2018-08-04T22:23:28.473Z,26.00
2018-08-04T22:25:55.848Z,26.00
2018-08-04T22:28:23.329Z,26.10
2018-08-04T22:30:51.272Z,26.10
2018-08-04T22:33:18.665Z,26.00
2018-08-04T22:35:46.025Z,26.00
2018-08-04T22:38:13.393Z,26.00
2018-08-04T22:40:40.776Z,26.00
2018-08-04T22:43:08.138Z,26.00
2018-08-04T22:46:13.280Z,26.00
2018-08-04T22:48:41.445Z,26.00
2018-08-04T22:51:08.828Z,26.00
2018-08-04T22:53:36.364Z,26.00
2018-08-04T22:56:03.736Z,26.00
2018-08-04T22:58:31.121Z,26.00
2018-08-04T23:00:58.641Z,26.00
2018-08-04T23:03:26.017Z,26.00
2018-08-04T23:05:53.389Z,26.00
2018-08-04T23:08:20.752Z,26.00
2018-08-04T23:10:48.138Z,26.00
2018-08-04T23:13:15.993Z,26.00
2018-08-04T23:15:43.668Z,26.00
2018-08-04T23:18:11.249Z,26.00
2018-08-04T23:20:38.616Z,26.00
2018-08-04T23:23:06.332Z,26.00
2018-08-04T23:25:33.696Z,26.00
2018-08-04T23:28:01.071Z,26.00
2018-08-04T23:30:28.438Z,26.00
2018-08-04T23:32:56.001Z,26.00
2018-08-04T23:37:51.953Z,26.00
2018-08-04T23:40:19.588Z,25.90
2018-08-04T23:42:46.953Z,26.00
2018-08-04T23:45:14.504Z,26.00
2018-08-04T23:47:42.667Z,25.90
2018-08-04T23:52:37.211Z,26.00
2018-08-04T23:55:04.585Z,26.00
2018-08-04T23:57:31.960Z,25.90
2018-08-04T23:59:59.320Z,25.90
